createdAt,value
2023-05-19T00:01:16.985Z,153442.63
2023-05-19T00:03:57.798Z,153465.97
2023-05-19T00:06:32.613Z,153455.56
2023-05-19T00:09:05.900Z,153452.97
2023-05-19T00:11:37.590Z,153438.72
2023-05-19T00:14:10.843Z,153441.34
2023-05-19T00:16:42.844Z,153436.09
2023-05-19T00:19:13.223Z,153446.53
2023-05-19T00:21:46.218Z,153436.09
2023-05-19T00:24:16.682Z,153437.44
2023-05-19T00:26:46.800Z,153449.09
2023-05-19T00:29:18.932Z,153451.69
2023-05-19T00:31:50.025Z,153442.63
2023-05-19T00:34:20.272Z,153454.28
2023-05-19T00:36:53.693Z,153455.56
2023-05-19T00:39:24.055Z,153452.97
2023-05-19T00:41:54.233Z,153458.16
2023-05-19T00:44:24.530Z,153465.97
2023-05-19T00:46:54.856Z,153455.56
2023-05-19T00:49:25.265Z,153460.72
2023-05-19T00:51:58.832Z,153471.16
2023-05-19T00:54:28.878Z,153456.88
2023-05-19T00:57:00.184Z,153456.88
2023-05-19T00:59:30.906Z,153446.53
2023-05-19T01:02:03.205Z,153450.38
2023-05-19T01:04:35.354Z,153443.91
2023-05-19T01:07:10.727Z,153437.44
2023-05-19T01:09:40.985Z,153454.28
2023-05-19T01:12:12.369Z,153434.81
2023-05-19T01:14:43.524Z,153433.53
2023-05-19T01:17:23.402Z,153432.25
2023-05-19T01:20:11.615Z,153455.56
2023-05-19T01:23:24.184Z,153447.81
2023-05-19T01:26:34.732Z,153441.34
2023-05-19T01:29:39.996Z,153440.00
2023-05-19T01:32:14.938Z,153451.69
2023-05-19T01:34:47.692Z,153451.69
2023-05-19T01:37:19.277Z,153442.63
2023-05-19T01:39:51.720Z,153419.28
2023-05-19T01:42:23.849Z,153419.28
2023-05-19T01:44:55.125Z,153408.91
2023-05-19T01:47:27.966Z,153402.44
2023-05-19T01:49:58.247Z,153411.53
2023-05-19T01:52:30.059Z,153388.19
2023-05-19T01:55:00.458Z,153386.91
2023-05-19T01:57:38.285Z,153384.28
2023-05-19T02:00:15.969Z,153390.75
2023-05-19T02:02:59.829Z,153376.50
2023-05-19T02:05:38.052Z,153371.31
2023-05-19T02:08:18.209Z,153390.75
2023-05-19T02:10:54.966Z,153353.19
2023-05-19T02:13:32.025Z,153346.69
2023-05-19T02:16:08.321Z,153324.63
2023-05-19T02:18:45.817Z,153327.25
2023-05-19T02:21:16.427Z,153310.38
2023-05-19T02:23:48.780Z,153303.91
2023-05-19T02:26:19.090Z,153275.38
2023-05-19T02:28:49.472Z,153292.22
2023-05-19T02:31:21.671Z,153289.63
2023-05-19T02:33:55.411Z,153298.72
2023-05-19T02:36:26.856Z,153285.75
2023-05-19T02:38:57.215Z,153249.47
2023-05-19T02:41:27.442Z,153244.31
2023-05-19T02:43:58.230Z,153223.59
2023-05-19T02:46:28.782Z,153248.19
2023-05-19T02:49:01.701Z,153211.88
2023-05-19T02:51:32.226Z,153219.69
2023-05-19T02:54:02.711Z,153209.31
2023-05-19T02:56:33.028Z,153198.97
2023-05-19T02:59:03.383Z,153180.81
2023-05-19T03:01:34.343Z,153180.81
2023-05-19T03:04:07.785Z,153179.53
2023-05-19T03:06:38.954Z,153167.84
2023-05-19T03:09:09.274Z,153139.38
2023-05-19T03:11:39.632Z,153139.38
2023-05-19T03:14:09.846Z,153154.91
2023-05-19T03:16:41.519Z,153132.88
2023-05-19T03:19:14.691Z,153128.97
2023-05-19T03:21:45.108Z,153118.63
2023-05-19T03:24:15.446Z,153108.28
2023-05-19T03:26:46.200Z,153096.63
2023-05-19T03:29:16.728Z,153068.13
2023-05-19T03:31:47.466Z,153083.66
2023-05-19T03:34:22.678Z,153082.38
2023-05-19T03:36:53.809Z,153072.03
2023-05-19T03:39:25.142Z,153073.31
2023-05-19T03:41:56.480Z,153069.41
2023-05-19T03:44:26.747Z,153077.19
2023-05-19T03:46:57.912Z,153074.59
2023-05-19T03:49:49.361Z,153086.28
2023-05-19T03:52:38.859Z,153103.09
2023-05-19T03:55:32.817Z,153061.66
2023-05-19T03:58:03.133Z,153072.03
2023-05-19T04:00:34.454Z,153082.38
2023-05-19T04:03:05.116Z,153085.00
2023-05-19T04:05:40.177Z,153110.88
2023-05-19T04:08:10.533Z,153108.28
2023-05-19T04:10:41.137Z,153117.34
2023-05-19T04:13:11.806Z,153105.69
2023-05-19T04:15:42.350Z,153121.25
2023-05-19T04:18:13.053Z,153134.22
2023-05-19T04:20:46.712Z,153136.78
2023-05-19T04:23:16.875Z,153136.78
2023-05-19T04:25:49.053Z,153162.66
2023-05-19T04:28:19.867Z,153205.44
2023-05-19T04:30:53.080Z,153198.97
2023-05-19T04:33:23.710Z,153252.03
2023-05-19T04:35:57.125Z,153263.75
2023-05-19T04:38:30.543Z,153265.03
2023-05-19T04:41:02.433Z,153268.91
2023-05-19T04:43:33.647Z,153312.97
2023-05-19T04:46:06.480Z,153337.59
2023-05-19T04:48:39.663Z,153358.38
2023-05-19T04:51:14.611Z,153390.75
2023-05-19T04:53:45.821Z,153434.81
2023-05-19T04:56:18.181Z,153467.25
2023-05-19T04:58:48.903Z,153508.72
2023-05-19T05:01:21.780Z,153506.16
2023-05-19T05:03:52.333Z,153535.97
2023-05-19T05:06:25.579Z,153596.91
2023-05-19T05:08:58.075Z,153617.63
2023-05-19T05:11:29.803Z,153664.34
2023-05-19T05:14:01.317Z,153724.06
2023-05-19T05:16:34.347Z,153782.41
2023-05-19T05:19:06.659Z,153809.69
2023-05-19T05:21:41.702Z,153755.19
2023-05-19T05:24:15.109Z,153664.34
2023-05-19T05:26:51.161Z,153665.66
2023-05-19T05:29:22.049Z,153686.38
2023-05-19T05:31:52.752Z,153725.34
2023-05-19T05:34:23.477Z,153753.91
2023-05-19T05:36:56.696Z,153816.16
2023-05-19T05:39:28.244Z,153861.56
2023-05-19T05:41:58.602Z,153881.03
2023-05-19T05:44:29.274Z,153978.41
2023-05-19T05:47:01.227Z,154010.84
2023-05-19T05:49:32.383Z,153905.72
2023-05-19T05:52:06.917Z,153980.97
2023-05-19T05:54:45.506Z,154006.97
2023-05-19T05:57:19.281Z,154045.94
2023-05-19T05:59:51.323Z,154117.38
2023-05-19T06:02:22.284Z,153945.94
2023-05-19T06:04:54.397Z,153927.78
2023-05-19T06:07:28.470Z,153846.00
2023-05-19T06:09:59.981Z,153844.72
2023-05-19T06:12:30.754Z,153896.63
2023-05-19T06:15:01.075Z,153843.44
2023-05-19T06:17:50.066Z,153875.84
2023-05-19T06:20:21.622Z,153975.78
2023-05-19T06:22:55.210Z,154010.84
2023-05-19T06:25:28.782Z,154042.09
2023-05-19T06:28:00.472Z,154064.13
2023-05-19T06:30:34.368Z,154086.22
2023-05-19T06:33:14.746Z,154069.31
2023-05-19T06:35:47.986Z,154071.94
2023-05-19T06:38:21.687Z,154161.53
2023-05-19T06:40:55.130Z,154282.34
2023-05-19T06:43:26.064Z,154327.84
2023-05-19T06:46:02.822Z,154288.81
2023-05-19T06:48:39.198Z,154245.97
2023-05-19T06:51:10.789Z,154310.94
2023-05-19T06:53:46.099Z,154430.53
2023-05-19T06:56:16.684Z,154439.63
2023-05-19T06:58:47.040Z,154340.88
2023-05-19T07:01:17.955Z,154453.94
2023-05-19T07:03:53.720Z,154339.56
2023-05-19T07:06:25.007Z,154304.44
2023-05-19T07:08:59.353Z,154411.03
2023-05-19T07:11:30.179Z,154487.69
2023-05-19T07:14:00.747Z,154565.69
2023-05-19T07:16:34.695Z,154529.31
2023-05-19T07:19:04.997Z,154439.63
2023-05-19T07:21:36.511Z,154427.91
2023-05-19T07:24:10.082Z,154520.22
2023-05-19T07:26:40.030Z,154483.81
2023-05-19T07:29:10.370Z,154481.22
2023-05-19T07:31:40.986Z,154564.41
2023-05-19T07:34:11.277Z,154635.97
2023-05-19T07:36:41.777Z,154766.00
2023-05-19T07:39:14.966Z,154568.31
2023-05-19T07:41:45.726Z,154580.00
2023-05-19T07:44:16.266Z,154619.06
2023-05-19T07:46:46.506Z,154677.59
2023-05-19T07:49:17.050Z,154674.97
2023-05-19T07:51:47.509Z,154599.56
2023-05-19T07:54:20.833Z,154694.50
2023-05-19T07:56:51.713Z,154702.31
2023-05-19T07:59:22.201Z,154756.94
2023-05-19T08:01:53.195Z,154794.63
2023-05-19T08:04:24.222Z,154946.94
2023-05-19T08:06:55.610Z,154954.72
2023-05-19T08:09:29.482Z,155044.50
2023-05-19T08:12:01.960Z,155043.22
2023-05-19T08:14:33.648Z,155004.19
2023-05-19T08:17:04.365Z,155075.78
2023-05-19T08:19:35.006Z,155153.91
2023-05-19T08:22:05.639Z,155117.47
2023-05-19T08:24:39.550Z,155044.50
2023-05-19T08:27:10.072Z,155071.88
2023-05-19T08:29:40.613Z,155182.59
2023-05-19T08:32:13.217Z,155168.25
2023-05-19T08:34:46.726Z,155103.16
2023-05-19T08:37:16.945Z,155185.22
2023-05-19T08:39:50.489Z,155097.94
2023-05-19T08:42:21.145Z,155191.72
2023-05-19T08:44:51.727Z,155245.09
2023-05-19T08:47:23.151Z,155203.41
2023-05-19T08:49:56.558Z,155230.78
2023-05-19T08:52:31.751Z,155079.72
2023-05-19T08:55:09.881Z,155123.97
2023-05-19T08:57:41.909Z,155069.25
2023-05-19T09:00:14.926Z,155146.13
2023-05-19T09:02:55.462Z,155216.44
2023-05-19T09:05:37.120Z,155117.47
2023-05-19T09:08:08.410Z,155168.25
2023-05-19T09:10:41.582Z,155324.56
2023-05-19T09:13:12.835Z,155333.75
2023-05-19T09:15:45.028Z,155246.41
2023-05-19T09:18:18.116Z,155328.53
2023-05-19T09:20:49.611Z,155314.16
2023-05-19T09:23:21.557Z,155444.47
2023-05-19T09:25:56.071Z,155299.81
2023-05-19T09:28:31.273Z,155351.94
2023-05-19T09:31:05.900Z,155509.59
2023-05-19T09:33:37.601Z,155539.59
2023-05-19T09:36:11.050Z,155557.91
2023-05-19T09:38:42.763Z,155504.41
2023-05-19T09:41:18.544Z,155547.41
2023-05-19T09:44:00.429Z,155638.69
2023-05-19T09:46:31.650Z,155564.41
2023-05-19T09:49:02.235Z,155587.88
2023-05-19T09:51:33.123Z,155628.28
2023-05-19T09:54:04.817Z,155574.81
2023-05-19T09:56:39.686Z,155534.38
2023-05-19T09:59:11.531Z,155637.41
2023-05-19T10:01:46.857Z,155673.88
2023-05-19T10:04:20.390Z,155744.28
2023-05-19T10:06:53.852Z,155801.72
2023-05-19T10:09:25.703Z,155784.75
2023-05-19T10:12:00.390Z,155705.16
2023-05-19T10:14:32.421Z,155663.47
2023-05-19T10:17:03.365Z,155599.59
2023-05-19T10:19:33.997Z,155684.31
2023-05-19T10:22:04.446Z,155590.44
2023-05-19T10:24:34.670Z,155723.44
2023-05-19T10:27:13.818Z,155677.81
2023-05-19T10:29:53.131Z,155666.03
2023-05-19T10:32:31.230Z,155596.94
2023-05-19T10:35:20.635Z,155542.16
2023-05-19T10:38:01.078Z,155529.16
2023-05-19T10:40:37.977Z,155673.88
2023-05-19T10:43:32.286Z,155666.03
2023-05-19T10:46:03.806Z,155767.81
2023-05-19T10:48:39.179Z,155632.19
2023-05-19T10:51:12.612Z,155690.81
2023-05-19T10:53:47.148Z,155608.72
2023-05-19T10:56:36.503Z,155770.41
2023-05-19T10:59:09.933Z,155467.94
2023-05-19T11:01:41.904Z,155564.41
2023-05-19T11:04:16.579Z,155594.38
2023-05-19T11:06:54.580Z,155443.16
2023-05-19T11:09:37.928Z,155646.50
2023-05-19T11:12:26.377Z,155754.72
2023-05-19T11:15:01.485Z,155839.53
2023-05-19T11:17:33.209Z,155933.44
2023-05-19T11:20:06.419Z,155767.81
2023-05-19T11:22:39.515Z,155819.97
2023-05-19T11:25:13.528Z,155676.47
2023-05-19T11:28:08.054Z,155759.91
2023-05-19T11:30:48.838Z,156014.34
2023-05-19T11:33:28.059Z,155843.44
2023-05-19T11:36:04.705Z,155942.56
2023-05-19T11:38:39.892Z,155885.16
2023-05-19T11:41:15.209Z,155887.78
2023-05-19T11:43:48.597Z,155900.81
2023-05-19T11:46:28.166Z,155872.16
2023-05-19T11:49:12.625Z,155878.66
2023-05-19T11:51:47.191Z,156092.66
2023-05-19T11:56:53.265Z,156005.22
2023-05-19T11:59:35.841Z,156066.56
2023-05-19T12:02:21.488Z,156067.88
2023-05-19T12:04:52.580Z,156002.63
2023-05-19T12:07:26.489Z,155840.81
2023-05-19T12:09:59.111Z,155825.16
2023-05-19T12:12:30.256Z,155932.16
2023-05-19T12:15:01.989Z,155853.88
2023-05-19T12:17:45.497Z,155865.59
2023-05-19T12:20:17.974Z,155968.66
2023-05-19T12:22:50.888Z,155963.44
2023-05-19T12:25:22.273Z,156070.44
2023-05-19T12:27:57.508Z,156030.00
2023-05-19T12:30:34.633Z,156052.22
2023-05-19T12:33:09.370Z,156065.25
2023-05-19T12:35:41.246Z,156147.47
2023-05-19T12:38:12.467Z,156163.13
2023-05-19T12:40:43.654Z,156037.84
2023-05-19T12:43:23.763Z,155913.88
2023-05-19T12:45:54.936Z,155896.94
2023-05-19T12:48:29.887Z,155827.81
2023-05-19T12:51:01.701Z,155830.38
2023-05-19T12:53:36.725Z,155970.00
2023-05-19T12:56:15.941Z,155976.56
2023-05-19T12:58:47.510Z,156054.81
2023-05-19T13:01:23.094Z,156105.72
2023-05-19T13:04:00.443Z,156120.03
2023-05-19T13:06:33.469Z,156049.59
2023-05-19T13:09:12.107Z,156058.72
2023-05-19T13:11:44.441Z,156028.72
2023-05-19T13:14:17.211Z,156091.38
2023-05-19T13:16:48.652Z,156095.25
2023-05-19T13:19:25.791Z,156048.28
2023-05-19T13:21:57.382Z,156057.44
2023-05-19T13:24:28.359Z,156129.19
2023-05-19T13:26:59.244Z,156033.94
2023-05-19T13:29:31.756Z,155979.13
2023-05-19T13:32:02.666Z,156022.22
2023-05-19T13:34:36.363Z,155907.38
2023-05-19T13:37:09.938Z,155983.06
2023-05-19T13:39:41.784Z,155998.72
2023-05-19T13:42:12.731Z,156045.66
2023-05-19T13:44:43.521Z,156028.72
2023-05-19T13:47:14.215Z,156078.31
2023-05-19T13:49:49.356Z,156050.94
2023-05-19T13:52:21.259Z,156039.16
2023-05-19T13:54:55.129Z,156027.44
2023-05-19T13:57:27.052Z,156013.06
2023-05-19T14:00:03.321Z,156020.91
2023-05-19T14:02:44.648Z,155963.44
2023-05-19T14:05:19.780Z,156009.16
2023-05-19T14:07:50.693Z,155913.88
2023-05-19T14:10:21.928Z,155903.44
2023-05-19T14:15:30.342Z,155946.50
2023-05-19T14:18:01.117Z,155967.38
2023-05-19T14:20:35.311Z,155842.16
2023-05-19T14:23:06.035Z,155912.56
2023-05-19T14:25:36.768Z,155906.03
2023-05-19T14:28:08.497Z,155938.66
2023-05-19T14:30:45.488Z,155923.00
2023-05-19T14:33:17.005Z,155911.28
2023-05-19T14:35:50.644Z,155921.72
2023-05-19T14:38:20.948Z,155932.16
2023-05-19T14:40:51.594Z,155860.38
2023-05-19T14:43:22.733Z,155859.09
2023-05-19T14:45:55.356Z,155866.94
2023-05-19T14:48:25.722Z,155849.94
2023-05-19T14:50:59.439Z,155898.22
2023-05-19T14:53:30.130Z,155932.16
2023-05-19T14:56:01.442Z,155921.72
2023-05-19T14:58:32.218Z,155937.38
2023-05-19T15:01:03.659Z,155895.59
2023-05-19T15:03:34.388Z,155926.94
2023-05-19T15:06:13.033Z,155970.00
2023-05-19T15:08:44.292Z,155953.00
2023-05-19T15:11:14.864Z,155932.16
2023-05-19T15:13:50.507Z,155889.09
2023-05-19T15:16:21.422Z,155833.00
2023-05-19T15:18:52.720Z,155844.72
2023-05-19T15:21:26.762Z,155835.59
2023-05-19T15:23:57.651Z,155860.38
2023-05-19T15:26:29.765Z,155809.53
2023-05-19T15:29:01.073Z,155821.25
2023-05-19T15:31:31.585Z,155806.94
2023-05-19T15:34:03.362Z,155806.94
2023-05-19T15:36:37.074Z,155817.38
2023-05-19T15:39:07.817Z,155865.59
2023-05-19T15:41:39.173Z,155893.00
2023-05-19T15:44:09.733Z,155891.72
2023-05-19T15:46:41.523Z,155805.59
2023-05-19T15:49:13.043Z,155846.03
2023-05-19T15:51:46.842Z,155855.16
2023-05-19T15:54:17.098Z,155878.66
2023-05-19T15:56:47.873Z,155873.44
2023-05-19T15:59:19.385Z,155903.44
2023-05-19T16:01:52.011Z,155942.56
2023-05-19T16:04:23.325Z,155916.50
2023-05-19T16:06:57.548Z,155908.66
2023-05-19T16:09:28.041Z,155909.94
2023-05-19T16:11:58.356Z,155851.25
2023-05-19T16:14:31.683Z,155829.09
2023-05-19T16:17:01.942Z,155834.31
2023-05-19T16:19:33.098Z,155756.00
2023-05-19T16:22:06.189Z,155823.88
2023-05-19T16:24:36.646Z,155821.25
2023-05-19T16:27:08.144Z,155774.31
2023-05-19T16:29:39.645Z,155787.38
2023-05-19T16:32:11.226Z,155746.91
2023-05-19T16:34:42.015Z,155728.66
2023-05-19T16:37:15.680Z,155718.22
2023-05-19T16:39:48.676Z,155686.94
2023-05-19T16:42:19.204Z,155668.69
2023-05-19T16:44:49.979Z,155641.28
2023-05-19T16:47:21.343Z,155616.50
2023-05-19T16:49:53.318Z,155598.28
2023-05-19T16:52:26.654Z,155594.38
2023-05-19T16:54:56.698Z,155555.25
2023-05-19T16:57:27.558Z,155523.94
2023-05-19T16:59:58.279Z,155540.88
2023-05-19T17:02:28.729Z,155513.53
2023-05-19T17:05:00.692Z,155475.72
2023-05-19T17:07:34.463Z,155421.00
2023-05-19T17:10:04.958Z,155411.88
2023-05-19T17:12:35.504Z,155385.81
2023-05-19T17:15:06.052Z,155361.06
2023-05-19T17:17:36.910Z,155337.59
2023-05-19T17:20:07.945Z,155324.56
2023-05-19T17:22:42.005Z,155295.91
2023-05-19T17:25:13.791Z,155289.41
2023-05-19T17:27:44.557Z,155288.06
2023-05-19T17:30:17.458Z,155241.19
2023-05-19T17:32:48.031Z,155212.53
2023-05-19T17:35:18.548Z,155211.25
2023-05-19T17:37:51.844Z,155185.22
2023-05-19T17:40:22.065Z,155161.75
2023-05-19T17:42:52.631Z,155127.91
2023-05-19T17:45:25.656Z,155108.38
2023-05-19T17:47:59.118Z,155084.91
2023-05-19T17:50:30.075Z,155077.09
2023-05-19T17:53:04.630Z,155038.03
2023-05-19T17:55:36.106Z,155018.50
2023-05-19T17:58:07.574Z,155002.88
2023-05-19T18:00:41.865Z,154969.03
2023-05-19T18:03:12.697Z,154965.16
2023-05-19T18:05:45.289Z,154932.63
2023-05-19T18:08:19.300Z,154906.59
2023-05-19T18:10:52.015Z,154880.59
2023-05-19T18:13:23.904Z,154845.38
2023-05-19T18:15:55.865Z,154818.06
2023-05-19T18:18:26.539Z,154789.44
2023-05-19T18:20:57.334Z,154786.88
2023-05-19T18:23:30.631Z,154763.44
2023-05-19T18:26:00.937Z,154727.03
2023-05-19T18:28:31.850Z,154694.50
2023-05-19T18:31:03.671Z,154672.41
2023-05-19T18:33:34.590Z,154646.34
2023-05-19T18:36:05.232Z,154655.47
2023-05-19T18:38:38.462Z,154633.38
2023-05-19T18:41:10.317Z,154625.56
2023-05-19T18:43:40.688Z,154593.09
2023-05-19T18:46:13.897Z,154568.31
2023-05-19T18:48:44.648Z,154577.44
2023-05-19T18:51:16.925Z,154572.19
2023-05-19T18:53:51.073Z,154543.63
2023-05-19T18:56:26.699Z,154542.28
2023-05-19T18:58:58.196Z,154533.22
2023-05-19T19:01:28.771Z,154509.81
2023-05-19T19:03:59.140Z,154485.13
2023-05-19T19:06:29.632Z,154477.28
2023-05-19T19:09:03.807Z,154465.63
2023-05-19T19:11:34.137Z,154495.50
2023-05-19T19:14:06.931Z,154500.72
2023-05-19T19:16:38.153Z,154483.81
2023-05-19T19:19:08.486Z,154465.63
2023-05-19T19:21:39.068Z,154465.63
2023-05-19T19:24:13.930Z,154437.00
2023-05-19T19:26:44.326Z,154399.34
2023-05-19T19:29:17.048Z,154395.44
2023-05-19T19:31:47.464Z,154404.53
2023-05-19T19:34:20.050Z,154392.81
2023-05-19T19:36:51.171Z,154396.72
2023-05-19T19:39:24.335Z,154395.44
2023-05-19T19:41:55.007Z,154374.66
2023-05-19T19:44:26.099Z,154395.44
2023-05-19T19:46:56.588Z,154476.00
2023-05-19T19:49:27.332Z,154556.59
2023-05-19T19:51:57.811Z,154538.44
2023-05-19T19:54:31.061Z,154528.03
2023-05-19T19:57:01.222Z,154539.72
2023-05-19T19:59:31.439Z,154502.00
2023-05-19T20:02:01.819Z,154507.19
2023-05-19T20:04:33.039Z,154489.03
2023-05-19T20:07:03.400Z,154474.72
2023-05-19T20:09:36.556Z,154447.41
2023-05-19T20:12:07.171Z,154469.53
2023-05-19T20:14:37.520Z,154450.03
2023-05-19T20:17:08.350Z,154451.31
2023-05-19T20:19:38.728Z,154455.22
2023-05-19T20:22:09.181Z,154452.59
2023-05-19T20:24:41.978Z,154453.94
2023-05-19T20:27:12.711Z,154443.53
2023-05-19T20:29:45.775Z,154439.63
2023-05-19T20:32:16.178Z,154430.53
2023-05-19T20:34:47.198Z,154425.31
2023-05-19T20:37:17.722Z,154418.84
2023-05-19T20:39:50.603Z,154425.31
2023-05-19T20:42:21.278Z,154416.22
2023-05-19T20:44:51.588Z,154420.13
2023-05-19T20:47:23.268Z,154424.03
2023-05-19T20:49:54.119Z,154427.91
2023-05-19T20:52:25.070Z,154433.09
2023-05-19T20:54:58.333Z,154444.81
2023-05-19T20:57:28.932Z,154439.63
2023-05-19T20:59:59.586Z,154427.91
2023-05-19T21:02:30.550Z,154412.31
2023-05-19T21:05:01.369Z,154400.63
2023-05-19T21:07:32.286Z,154385.06
2023-05-19T21:10:05.748Z,154382.44
2023-05-19T21:12:36.119Z,154381.13
2023-05-19T21:15:06.698Z,154382.44
2023-05-19T21:17:37.574Z,154383.75
2023-05-19T21:20:09.662Z,154374.66
2023-05-19T21:22:41.146Z,154366.84
2023-05-19T21:25:17.799Z,154344.78
2023-05-19T21:27:49.118Z,154351.25
2023-05-19T21:30:19.463Z,154356.44
2023-05-19T21:32:50.249Z,154360.34
2023-05-19T21:35:21.216Z,154343.44
2023-05-19T21:37:51.905Z,154334.38
2023-05-19T21:40:29.577Z,154347.34
2023-05-19T21:43:00.121Z,154339.56
2023-05-19T21:45:31.557Z,154316.19
2023-05-19T21:48:01.792Z,154305.72
2023-05-19T21:50:33.437Z,154316.19
2023-05-19T21:53:03.939Z,154301.81
2023-05-19T21:55:37.519Z,154265.47
2023-05-19T21:58:07.518Z,154248.53
2023-05-19T22:00:39.395Z,154232.97
2023-05-19T22:03:09.905Z,154232.97
2023-05-19T22:05:40.390Z,154230.41
2023-05-19T22:08:11.464Z,154213.47
2023-05-19T22:10:44.441Z,154192.69
2023-05-19T22:13:14.789Z,154187.50
2023-05-19T22:15:47.604Z,154178.41
2023-05-19T22:18:18.399Z,154178.41
2023-05-19T22:20:48.772Z,154166.75
2023-05-19T22:23:19.183Z,154153.72
2023-05-19T22:25:52.118Z,154147.25
2023-05-19T22:28:22.912Z,154125.16
2023-05-19T22:30:54.086Z,154108.28
2023-05-19T22:33:24.394Z,154062.84
2023-05-19T22:35:54.835Z,154039.47
2023-05-19T22:38:25.416Z,154006.97
2023-05-19T22:40:58.636Z,154017.38
2023-05-19T22:43:29.121Z,154027.78
2023-05-19T22:45:59.532Z,154023.88
2023-05-19T22:48:30.152Z,154010.84
2023-05-19T22:51:00.787Z,154018.66
2023-05-19T22:53:31.515Z,154014.75
2023-05-19T22:56:05.051Z,154017.38
2023-05-19T22:58:35.388Z,154000.47
2023-05-19T23:01:06.717Z,154000.47
2023-05-19T23:03:36.980Z,153991.41
2023-05-19T23:06:08.368Z,153991.41
2023-05-19T23:08:39.290Z,154026.50
2023-05-19T23:11:12.627Z,154030.38
2023-05-19T23:13:42.956Z,154030.38
2023-05-19T23:16:13.336Z,154008.28
2023-05-19T23:18:44.271Z,153995.28
2023-05-19T23:21:15.340Z,153988.78
2023-05-19T23:23:46.085Z,153979.69
2023-05-19T23:26:19.609Z,153977.13
2023-05-19T23:28:49.752Z,153961.50
2023-05-19T23:31:20.321Z,153942.09
2023-05-19T23:33:50.828Z,153940.75
2023-05-19T23:36:21.330Z,153952.47
2023-05-19T23:38:51.836Z,153933.00
2023-05-19T23:41:25.159Z,153922.59
2023-05-19T23:43:56.554Z,153913.50
2023-05-19T23:46:27.096Z,153900.50
2023-05-19T23:48:57.398Z,153897.94
2023-05-19T23:51:27.664Z,153886.22
2023-05-19T23:53:58.301Z,153877.13
2023-05-19T23:56:31.425Z,153870.66
2023-05-19T23:59:02.249Z,153864.19
